Terminal Aerodrome Forecast
Issued by NWS

Home | Current Version | Previous Version | Text Only | Print | Product List | Glossary On
Versions: 1 2 3 4 5 6 7 8 9 10 11 12 13 14 15 16 17 18 19 20 21 22
637
FTUS41 KPHI 230528
TAFMIV
TAF
KMIV 230528Z 2306/2406 36006KT P6SM OVC010
      TEMPO 2306/2309 3SM BR BKN008
     FM231100 03008KT P6SM BKN045
     FM231800 09006KT P6SM OVC035
     FM232100 07006KT 6SM -SHRA OVC015
     FM240300 04006KT P6SM OVC010=

USA.gov is the U.S. government's official web portal to all federal, state and local government web resources and services.